sensor_id;sensor_type;location;lat;lon;timestamp;P1;durP1;ratioP1;P2;durP2;ratioP2
39032;SDS011;24794;51.982;5.878;2022-10-28T00:00:20;14.77;;;3.90;;
39032;SDS011;24794;51.982;5.878;2022-10-28T00:01:21;11.07;;;4.00;;
39032;SDS011;24794;51.982;5.878;2022-10-28T00:02:23;9.68;;;4.22;;
39032;SDS011;24794;51.982;5.878;2022-10-28T00:03:24;13.30;;;4.65;;
39032;SDS011;24794;51.982;5.878;2022-10-28T00:04:24;6.68;;;4.00;;
39032;SDS011;24794;51.982;5.878;2022-10-28T00:05:25;10.95;;;4.18;;
39032;SDS011;24794;51.982;5.878;2022-10-28T00:06:32;10.73;;;3.95;;
39032;SDS011;24794;51.982;5.878;2022-10-28T00:07:34;13.52;;;3.70;;
39032;SDS011;24794;51.982;5.878;2022-10-28T00:08:35;9.63;;;4.25;;
39032;SDS011;24794;51.982;5.878;2022-10-28T00:09:35;16.85;;;4.00;;
39032;SDS011;24794;51.982;5.878;2022-10-28T00:10:36;10.93;;;4.30;;
39032;SDS011;24794;51.982;5.878;2022-10-28T00:11:36;12.88;;;4.15;;
39032;SDS011;24794;51.982;5.878;2022-10-28T00:12:37;9.30;;;4.07;;
39032;SDS011;24794;51.982;5.878;2022-10-28T00:13:38;12.68;;;4.32;;
39032;SDS011;24794;51.982;5.878;2022-10-28T00:14:39;9.10;;;4.45;;
39032;SDS011;24794;51.982;5.878;2022-10-28T00:15:40;10.45;;;4.05;;
39032;SDS011;24794;51.982;5.878;2022-10-28T00:16:40;10.25;;;4.35;;
39032;SDS011;24794;51.982;5.878;2022-10-28T00:17:42;11.05;;;4.25;;
39032;SDS011;24794;51.982;5.878;2022-10-28T00:18:43;13.50;;;4.20;;
39032;SDS011;24794;51.982;5.878;2022-10-28T00:19:43;13.05;;;4.30;;
39032;SDS011;24794;51.982;5.878;2022-10-28T00:20:44;12.65;;;4.15;;
39032;SDS011;24794;51.982;5.878;2022-10-28T00:21:44;10.23;;;4.63;;
39032;SDS011;24794;51.982;5.878;2022-10-28T00:22:45;7.88;;;4.20;;
39032;SDS011;24794;51.982;5.878;2022-10-28T00:23:46;13.50;;;4.75;;
39032;SDS011;24794;51.982;5.878;2022-10-28T00:24:46;11.85;;;4.10;;
39032;SDS011;24794;51.982;5.878;2022-10-28T00:25:47;9.45;;;4.60;;
39032;SDS011;24794;51.982;5.878;2022-10-28T00:26:47;12.75;;;4.25;;
39032;SDS011;24794;51.982;5.878;2022-10-28T00:27:48;8.70;;;4.43;;
39032;SDS011;24794;51.982;5.878;2022-10-28T00:28:50;12.23;;;4.60;;
39032;SDS011;24794;51.982;5.878;2022-10-28T00:29:52;12.57;;;4.55;;
39032;SDS011;24794;51.982;5.878;2022-10-28T00:30:53;9.50;;;4.50;;
39032;SDS011;24794;51.982;5.878;2022-10-28T00:31:53;9.75;;;4.47;;
39032;SDS011;24794;51.982;5.878;2022-10-28T00:32:54;13.60;;;4.38;;
39032;SDS011;24794;51.982;5.878;2022-10-28T00:33:56;12.05;;;4.45;;
39032;SDS011;24794;51.982;5.878;2022-10-28T00:34:57;9.20;;;4.50;;
39032;SDS011;24794;51.982;5.878;2022-10-28T00:36:14;11.07;;;4.35;;
39032;SDS011;24794;51.982;5.878;2022-10-28T00:37:19;9.10;;;4.22;;
39032;SDS011;24794;51.982;5.878;2022-10-28T00:38:20;10.07;;;4.47;;
39032;SDS011;24794;51.982;5.878;2022-10-28T00:39:22;13.82;;;4.70;;
39032;SDS011;24794;51.982;5.878;2022-10-28T00:40:23;11.90;;;4.60;;
39032;SDS011;24794;51.982;5.878;2022-10-28T00:41:29;11.20;;;4.60;;
39032;SDS011;24794;51.982;5.878;2022-10-28T00:42:33;11.02;;;4.35;;
39032;SDS011;24794;51.982;5.878;2022-10-28T00:44:45;12.05;;;4.85;;
39032;SDS011;24794;51.982;5.878;2022-10-28T00:46:00;8.80;;;4.60;;
39032;SDS011;24794;51.982;5.878;2022-10-28T00:47:01;12.95;;;4.82;;
39032;SDS011;24794;51.982;5.878;2022-10-28T00:48:03;9.60;;;4.28;;
39032;SDS011;24794;51.982;5.878;2022-10-28T00:49:15;12.75;;;4.82;;
39032;SDS011;24794;51.982;5.878;2022-10-28T00:50:38;7.95;;;4.55;;
39032;SDS011;24794;51.982;5.878;2022-10-28T00:51:50;11.55;;;4.90;;
39032;SDS011;24794;51.982;5.878;2022-10-28T00:53:01;16.70;;;4.80;;
39032;SDS011;24794;51.982;5.878;2022-10-28T00:54:05;14.40;;;4.60;;
39032;SDS011;24794;51.982;5.878;2022-10-28T00:55:07;8.10;;;4.45;;
39032;SDS011;24794;51.982;5.878;2022-10-28T00:56:08;8.38;;;4.95;;
39032;SDS011;24794;51.982;5.878;2022-10-28T00:57:12;9.48;;;4.43;;
39032;SDS011;24794;51.982;5.878;2022-10-28T00:58:16;10.85;;;4.78;;
39032;SDS011;24794;51.982;5.878;2022-10-28T00:59:26;11.27;;;4.70;;
39032;SDS011;24794;51.982;5.878;2022-10-28T01:00:35;10.23;;;4.95;;
39032;SDS011;24794;51.982;5.878;2022-10-28T01:01:36;12.18;;;5.35;;
39032;SDS011;24794;51.982;5.878;2022-10-28T01:02:45;13.60;;;5.18;;
39032;SDS011;24794;51.982;5.878;2022-10-28T01:03:47;8.88;;;4.82;;
39032;SDS011;24794;51.982;5.878;2022-10-28T01:04:48;11.05;;;5.32;;
39032;SDS011;24794;51.982;5.878;2022-10-28T01:05:49;11.13;;;4.90;;
39032;SDS011;24794;51.982;5.878;2022-10-28T01:06:51;8.25;;;4.75;;
39032;SDS011;24794;51.982;5.878;2022-10-28T01:07:52;10.85;;;5.10;;
39032;SDS011;24794;51.982;5.878;2022-10-28T01:08:56;11.35;;;4.88;;
39032;SDS011;24794;51.982;5.878;2022-10-28T01:09:56;11.55;;;4.90;;
39032;SDS011;24794;51.982;5.878;2022-10-28T01:11:01;11.50;;;5.10;;
39032;SDS011;24794;51.982;5.878;2022-10-28T01:14:28;8.82;;;5.00;;
39032;SDS011;24794;51.982;5.878;2022-10-28T01:26:42;7.28;;;4.38;;
39032;SDS011;24794;51.982;5.878;2022-10-28T01:30:18;8.73;;;5.55;;
39032;SDS011;24794;51.982;5.878;2022-10-28T01:31:32;9.32;;;4.85;;
39032;SDS011;24794;51.982;5.878;2022-10-28T01:32:48;7.30;;;5.07;;
39032;SDS011;24794;51.982;5.878;2022-10-28T01:38:00;12.75;;;5.13;;
39032;SDS011;24794;51.982;5.878;2022-10-28T01:41:58;11.52;;;5.10;;
39032;SDS011;24794;51.982;5.878;2022-10-28T01:44:26;10.18;;;4.97;;
39032;SDS011;24794;51.982;5.878;2022-10-28T01:45:55;11.05;;;4.95;;
39032;SDS011;24794;51.982;5.878;2022-10-28T01:47:07;11.38;;;4.70;;
39032;SDS011;24794;51.982;5.878;2022-10-28T01:49:46;14.40;;;5.05;;
39032;SDS011;24794;51.982;5.878;2022-10-28T01:51:02;11.23;;;4.82;;
39032;SDS011;24794;51.982;5.878;2022-10-28T01:52:10;8.60;;;4.88;;
39032;SDS011;24794;51.982;5.878;2022-10-28T01:53:17;9.70;;;4.70;;
39032;SDS011;24794;51.982;5.878;2022-10-28T01:54:23;9.82;;;4.57;;
39032;SDS011;24794;51.982;5.878;2022-10-28T01:55:26;11.20;;;4.78;;
39032;SDS011;24794;51.982;5.878;2022-10-28T01:56:33;12.57;;;4.78;;
39032;SDS011;24794;51.982;5.878;2022-10-28T01:57:36;11.18;;;4.63;;
39032;SDS011;24794;51.982;5.878;2022-10-28T01:58:40;9.82;;;4.72;;
39032;SDS011;24794;51.982;5.878;2022-10-28T01:59:41;10.07;;;4.78;;
39032;SDS011;24794;51.982;5.878;2022-10-28T02:00:44;11.55;;;4.47;;
39032;SDS011;24794;51.982;5.878;2022-10-28T02:01:46;10.52;;;4.70;;
39032;SDS011;24794;51.982;5.878;2022-10-28T02:02:47;8.75;;;4.78;;
39032;SDS011;24794;51.982;5.878;2022-10-28T02:03:49;14.07;;;4.75;;
39032;SDS011;24794;51.982;5.878;2022-10-28T02:05:00;13.98;;;4.97;;
39032;SDS011;24794;51.982;5.878;2022-10-28T02:06:06;10.13;;;5.32;;
39032;SDS011;24794;51.982;5.878;2022-10-28T02:07:14;11.13;;;5.07;;
39032;SDS011;24794;51.982;5.878;2022-10-28T02:11:02;10.93;;;4.53;;
39032;SDS011;24794;51.982;5.878;2022-10-28T02:12:18;16.20;;;5.00;;
39032;SDS011;24794;51.982;5.878;2022-10-28T02:15:22;10.77;;;4.18;;
39032;SDS011;24794;51.982;5.878;2022-10-28T02:19:01;11.60;;;4.53;;
39032;SDS011;24794;51.982;5.878;2022-10-28T02:20:36;11.07;;;4.30;;
39032;SDS011;24794;51.982;5.878;2022-10-28T02:23:07;10.60;;;4.97;;
39032;SDS011;24794;51.982;5.878;2022-10-28T02:27:04;9.57;;;4.57;;
39032;SDS011;24794;51.982;5.878;2022-10-28T02:28:17;8.38;;;4.65;;
39032;SDS011;24794;51.982;5.878;2022-10-28T02:29:46;10.68;;;4.68;;
39032;SDS011;24794;51.982;5.878;2022-10-28T02:32:02;8.82;;;4.63;;
39032;SDS011;24794;51.982;5.878;2022-10-28T02:33:06;13.80;;;4.88;;
39032;SDS011;24794;51.982;5.878;2022-10-28T02:34:22;9.88;;;4.47;;
39032;SDS011;24794;51.982;5.878;2022-10-28T02:35:31;12.13;;;4.68;;
39032;SDS011;24794;51.982;5.878;2022-10-28T02:36:37;9.77;;;4.60;;
39032;SDS011;24794;51.982;5.878;2022-10-28T02:37:41;12.75;;;5.40;;
39032;SDS011;24794;51.982;5.878;2022-10-28T02:39:02;11.35;;;4.65;;
39032;SDS011;24794;51.982;5.878;2022-10-28T02:40:06;10.52;;;4.75;;
39032;SDS011;24794;51.982;5.878;2022-10-28T02:41:22;11.35;;;4.15;;
39032;SDS011;24794;51.982;5.878;2022-10-28T02:42:28;10.40;;;5.32;;
39032;SDS011;24794;51.982;5.878;2022-10-28T02:43:32;8.68;;;4.30;;
39032;SDS011;24794;51.982;5.878;2022-10-28T02:44:37;15.50;;;4.95;;
39032;SDS011;24794;51.982;5.878;2022-10-28T02:45:41;16.92;;;4.72;;
39032;SDS011;24794;51.982;5.878;2022-10-28T02:46:45;11.23;;;4.57;;
39032;SDS011;24794;51.982;5.878;2022-10-28T02:47:58;10.05;;;4.82;;
39032;SDS011;24794;51.982;5.878;2022-10-28T02:49:05;10.77;;;4.90;;
39032;SDS011;24794;51.982;5.878;2022-10-28T02:50:10;11.02;;;4.60;;
39032;SDS011;24794;51.982;5.878;2022-10-28T02:51:15;8.73;;;4.50;;
39032;SDS011;24794;51.982;5.878;2022-10-28T02:52:20;11.70;;;4.38;;
39032;SDS011;24794;51.982;5.878;2022-10-28T02:53:27;9.88;;;4.75;;
39032;SDS011;24794;51.982;5.878;2022-10-28T02:54:39;9.10;;;4.30;;
39032;SDS011;24794;51.982;5.878;2022-10-28T02:55:44;17.08;;;4.63;;
39032;SDS011;24794;51.982;5.878;2022-10-28T02:56:51;9.93;;;4.55;;
39032;SDS011;24794;51.982;5.878;2022-10-28T02:58:07;12.88;;;4.43;;
39032;SDS011;24794;51.982;5.878;2022-10-28T02:59:10;13.07;;;4.38;;
39032;SDS011;24794;51.982;5.878;2022-10-28T03:00:14;10.35;;;4.30;;
39032;SDS011;24794;51.982;5.878;2022-10-28T03:01:16;10.77;;;4.63;;
39032;SDS011;24794;51.982;5.878;2022-10-28T03:02:17;13.27;;;4.72;;
39032;SDS011;24794;51.982;5.878;2022-10-28T03:03:18;12.10;;;4.80;;
39032;SDS011;24794;51.982;5.878;2022-10-28T03:04:18;11.40;;;4.47;;
39032;SDS011;24794;51.982;5.878;2022-10-28T03:05:19;11.60;;;4.32;;
39032;SDS011;24794;51.982;5.878;2022-10-28T03:06:19;10.13;;;4.05;;
39032;SDS011;24794;51.982;5.878;2022-10-28T03:07:20;7.85;;;4.32;;
39032;SDS011;24794;51.982;5.878;2022-10-28T03:08:20;13.48;;;4.63;;
39032;SDS011;24794;51.982;5.878;2022-10-28T03:09:23;13.52;;;4.95;;
39032;SDS011;24794;51.982;5.878;2022-10-28T03:10:24;10.77;;;4.78;;
39032;SDS011;24794;51.982;5.878;2022-10-28T03:11:24;18.42;;;4.72;;
39032;SDS011;24794;51.982;5.878;2022-10-28T03:12:25;15.07;;;4.30;;
39032;SDS011;24794;51.982;5.878;2022-10-28T03:13:26;9.95;;;4.40;;
39032;SDS011;24794;51.982;5.878;2022-10-28T03:14:26;9.70;;;4.50;;
39032;SDS011;24794;51.982;5.878;2022-10-28T03:15:27;9.02;;;4.30;;
39032;SDS011;24794;51.982;5.878;2022-10-28T03:16:27;9.15;;;4.88;;
39032;SDS011;24794;51.982;5.878;2022-10-28T03:17:28;14.85;;;4.22;;
39032;SDS011;24794;51.982;5.878;2022-10-28T03:18:29;12.18;;;4.60;;
39032;SDS011;24794;51.982;5.878;2022-10-28T03:19:29;12.85;;;4.47;;
39032;SDS011;24794;51.982;5.878;2022-10-28T03:20:30;9.35;;;4.25;;
39032;SDS011;24794;51.982;5.878;2022-10-28T03:21:30;8.85;;;4.57;;
39032;SDS011;24794;51.982;5.878;2022-10-28T03:22:31;10.35;;;3.78;;
39032;SDS011;24794;51.982;5.878;2022-10-28T03:23:32;9.45;;;4.50;;
39032;SDS011;24794;51.982;5.878;2022-10-28T03:24:32;11.85;;;4.63;;
39032;SDS011;24794;51.982;5.878;2022-10-28T03:25:33;11.00;;;4.10;;
39032;SDS011;24794;51.982;5.878;2022-10-28T03:26:33;9.18;;;4.50;;
39032;SDS011;24794;51.982;5.878;2022-10-28T03:27:34;15.43;;;4.57;;
39032;SDS011;24794;51.982;5.878;2022-10-28T03:28:35;17.13;;;4.57;;
39032;SDS011;24794;51.982;5.878;2022-10-28T03:29:35;11.50;;;4.05;;
39032;SDS011;24794;51.982;5.878;2022-10-28T03:30:36;12.75;;;4.68;;
39032;SDS011;24794;51.982;5.878;2022-10-28T03:31:36;9.38;;;4.35;;
39032;SDS011;24794;51.982;5.878;2022-10-28T03:32:39;9.55;;;4.13;;
39032;SDS011;24794;51.982;5.878;2022-10-28T03:33:41;11.25;;;4.45;;
39032;SDS011;24794;51.982;5.878;2022-10-28T03:34:41;10.38;;;5.38;;
39032;SDS011;24794;51.982;5.878;2022-10-28T03:35:43;10.32;;;4.32;;
39032;SDS011;24794;51.982;5.878;2022-10-28T03:36:43;14.35;;;5.00;;
39032;SDS011;24794;51.982;5.878;2022-10-28T03:37:44;9.35;;;4.43;;
39032;SDS011;24794;51.982;5.878;2022-10-28T03:38:44;6.07;;;3.88;;
39032;SDS011;24794;51.982;5.878;2022-10-28T03:39:45;11.98;;;4.80;;
39032;SDS011;24794;51.982;5.878;2022-10-28T03:40:49;12.07;;;4.60;;
39032;SDS011;24794;51.982;5.878;2022-10-28T03:41:49;18.08;;;4.47;;
39032;SDS011;24794;51.982;5.878;2022-10-28T03:42:50;9.57;;;4.05;;
39032;SDS011;24794;51.982;5.878;2022-10-28T03:43:50;9.43;;;4.70;;
39032;SDS011;24794;51.982;5.878;2022-10-28T03:44:54;10.45;;;4.18;;
39032;SDS011;24794;51.982;5.878;2022-10-28T03:45:55;18.63;;;4.57;;
39032;SDS011;24794;51.982;5.878;2022-10-28T03:46:55;8.75;;;4.10;;
39032;SDS011;24794;51.982;5.878;2022-10-28T03:47:56;12.05;;;4.38;;
39032;SDS011;24794;51.982;5.878;2022-10-28T03:48:56;9.40;;;4.43;;
39032;SDS011;24794;51.982;5.878;2022-10-28T03:49:57;8.35;;;4.10;;
39032;SDS011;24794;51.982;5.878;2022-10-28T03:50:57;11.27;;;4.90;;
39032;SDS011;24794;51.982;5.878;2022-10-28T03:51:58;8.50;;;4.07;;
39032;SDS011;24794;51.982;5.878;2022-10-28T03:52:59;15.38;;;4.72;;
39032;SDS011;24794;51.982;5.878;2022-10-28T03:53:59;12.40;;;5.85;;
39032;SDS011;24794;51.982;5.878;2022-10-28T03:55:00;8.85;;;4.20;;
39032;SDS011;24794;51.982;5.878;2022-10-28T03:56:00;13.07;;;4.40;;
39032;SDS011;24794;51.982;5.878;2022-10-28T03:57:01;10.35;;;4.95;;
39032;SDS011;24794;51.982;5.878;2022-10-28T03:58:02;13.95;;;4.65;;
39032;SDS011;24794;51.982;5.878;2022-10-28T03:59:03;13.48;;;4.40;;
39032;SDS011;24794;51.982;5.878;2022-10-28T04:00:04;14.57;;;4.85;;
39032;SDS011;24794;51.982;5.878;2022-10-28T04:01:05;10.32;;;4.43;;
39032;SDS011;24794;51.982;5.878;2022-10-28T04:02:05;9.85;;;4.68;;
39032;SDS011;24794;51.982;5.878;2022-10-28T04:03:06;9.80;;;4.20;;
39032;SDS011;24794;51.982;5.878;2022-10-28T04:04:07;9.43;;;4.53;;
39032;SDS011;24794;51.982;5.878;2022-10-28T04:05:07;8.55;;;4.60;;
39032;SDS011;24794;51.982;5.878;2022-10-28T04:06:08;8.70;;;4.20;;
39032;SDS011;24794;51.982;5.878;2022-10-28T04:07:09;11.05;;;4.20;;
39032;SDS011;24794;51.982;5.878;2022-10-28T04:08:09;8.90;;;3.80;;
39032;SDS011;24794;51.982;5.878;2022-10-28T04:09:10;12.05;;;4.43;;
39032;SDS011;24794;51.982;5.878;2022-10-28T04:10:11;7.63;;;3.95;;
39032;SDS011;24794;51.982;5.878;2022-10-28T04:11:12;6.63;;;3.70;;
39032;SDS011;24794;51.982;5.878;2022-10-28T04:12:12;8.32;;;3.60;;
39032;SDS011;24794;51.982;5.878;2022-10-28T04:13:13;9.57;;;4.57;;
39032;SDS011;24794;51.982;5.878;2022-10-28T04:14:14;9.77;;;4.47;;
39032;SDS011;24794;51.982;5.878;2022-10-28T04:15:15;8.27;;;3.75;;
39032;SDS011;24794;51.982;5.878;2022-10-28T04:16:16;10.55;;;4.20;;
39032;SDS011;24794;51.982;5.878;2022-10-28T04:17:16;8.70;;;4.03;;
39032;SDS011;24794;51.982;5.878;2022-10-28T04:18:17;9.60;;;3.60;;
39032;SDS011;24794;51.982;5.878;2022-10-28T04:19:17;12.68;;;4.00;;
39032;SDS011;24794;51.982;5.878;2022-10-28T04:20:18;13.02;;;3.75;;
39032;SDS011;24794;51.982;5.878;2022-10-28T04:21:18;12.15;;;3.70;;
39032;SDS011;24794;51.982;5.878;2022-10-28T04:22:19;9.15;;;3.83;;
39032;SDS011;24794;51.982;5.878;2022-10-28T04:23:19;7.88;;;3.67;;
39032;SDS011;24794;51.982;5.878;2022-10-28T04:24:20;9.38;;;5.15;;
39032;SDS011;24794;51.982;5.878;2022-10-28T04:25:21;8.55;;;3.90;;
39032;SDS011;24794;51.982;5.878;2022-10-28T04:26:22;11.02;;;4.25;;
39032;SDS011;24794;51.982;5.878;2022-10-28T04:27:22;8.80;;;3.92;;
39032;SDS011;24794;51.982;5.878;2022-10-28T04:28:23;10.65;;;4.00;;
39032;SDS011;24794;51.982;5.878;2022-10-28T04:29:24;9.18;;;3.40;;
39032;SDS011;24794;51.982;5.878;2022-10-28T04:30:24;6.97;;;3.65;;
39032;SDS011;24794;51.982;5.878;2022-10-28T04:31:25;9.05;;;3.88;;
39032;SDS011;24794;51.982;5.878;2022-10-28T04:32:25;6.93;;;3.42;;
39032;SDS011;24794;51.982;5.878;2022-10-28T04:33:26;10.30;;;3.85;;
39032;SDS011;24794;51.982;5.878;2022-10-28T04:34:26;12.93;;;3.92;;
39032;SDS011;24794;51.982;5.878;2022-10-28T04:35:27;10.25;;;3.92;;
39032;SDS011;24794;51.982;5.878;2022-10-28T04:36:27;16.02;;;3.88;;
39032;SDS011;24794;51.982;5.878;2022-10-28T04:37:28;7.68;;;3.80;;
39032;SDS011;24794;51.982;5.878;2022-10-28T04:38:28;9.88;;;3.65;;
39032;SDS011;24794;51.982;5.878;2022-10-28T04:39:29;7.70;;;3.38;;
39032;SDS011;24794;51.982;5.878;2022-10-28T04:40:30;13.18;;;3.55;;
39032;SDS011;24794;51.982;5.878;2022-10-28T04:41:30;8.90;;;3.67;;
39032;SDS011;24794;51.982;5.878;2022-10-28T04:42:31;8.88;;;3.60;;
39032;SDS011;24794;51.982;5.878;2022-10-28T04:43:31;12.00;;;4.25;;
39032;SDS011;24794;51.982;5.878;2022-10-28T04:44:32;16.73;;;4.05;;
39032;SDS011;24794;51.982;5.878;2022-10-28T04:45:32;7.75;;;3.38;;
39032;SDS011;24794;51.982;5.878;2022-10-28T04:46:33;8.52;;;3.17;;
39032;SDS011;24794;51.982;5.878;2022-10-28T04:47:33;9.65;;;3.45;;
39032;SDS011;24794;51.982;5.878;2022-10-28T04:48:34;12.55;;;3.75;;
39032;SDS011;24794;51.982;5.878;2022-10-28T04:49:35;11.20;;;3.75;;
39032;SDS011;24794;51.982;5.878;2022-10-28T04:50:35;13.82;;;4.00;;
39032;SDS011;24794;51.982;5.878;2022-10-28T04:51:36;7.30;;;3.35;;
39032;SDS011;24794;51.982;5.878;2022-10-28T04:52:37;7.10;;;3.47;;
39032;SDS011;24794;51.982;5.878;2022-10-28T04:53:37;7.63;;;3.60;;
39032;SDS011;24794;51.982;5.878;2022-10-28T04:54:38;9.82;;;3.58;;
39032;SDS011;24794;51.982;5.878;2022-10-28T04:55:38;8.68;;;3.60;;
39032;SDS011;24794;51.982;5.878;2022-10-28T04:56:39;8.15;;;3.45;;
39032;SDS011;24794;51.982;5.878;2022-10-28T04:57:39;6.80;;;3.22;;
39032;SDS011;24794;51.982;5.878;2022-10-28T04:58:40;7.75;;;3.28;;
39032;SDS011;24794;51.982;5.878;2022-10-28T04:59:41;10.77;;;3.88;;
39032;SDS011;24794;51.982;5.878;2022-10-28T05:00:41;11.02;;;3.38;;
39032;SDS011;24794;51.982;5.878;2022-10-28T05:01:42;6.88;;;3.17;;
39032;SDS011;24794;51.982;5.878;2022-10-28T05:02:42;9.70;;;3.47;;
39032;SDS011;24794;51.982;5.878;2022-10-28T05:03:43;11.02;;;3.50;;
39032;SDS011;24794;51.982;5.878;2022-10-28T05:04:43;8.65;;;3.47;;
39032;SDS011;24794;51.982;5.878;2022-10-28T05:05:44;7.57;;;3.55;;
39032;SDS011;24794;51.982;5.878;2022-10-28T05:06:44;13.55;;;3.72;;
39032;SDS011;24794;51.982;5.878;2022-10-28T05:07:45;12.55;;;3.92;;
39032;SDS011;24794;51.982;5.878;2022-10-28T05:08:46;11.93;;;3.33;;
39032;SDS011;24794;51.982;5.878;2022-10-28T05:09:46;8.32;;;3.38;;
39032;SDS011;24794;51.982;5.878;2022-10-28T05:10:47;8.73;;;3.63;;
39032;SDS011;24794;51.982;5.878;2022-10-28T05:11:50;13.02;;;3.40;;
39032;SDS011;24794;51.982;5.878;2022-10-28T05:12:50;11.75;;;3.97;;
39032;SDS011;24794;51.982;5.878;2022-10-28T05:13:51;7.43;;;3.17;;
39032;SDS011;24794;51.982;5.878;2022-10-28T05:14:53;9.35;;;3.88;;
39032;SDS011;24794;51.982;5.878;2022-10-28T05:15:53;8.60;;;3.40;;
39032;SDS011;24794;51.982;5.878;2022-10-28T05:16:54;6.80;;;3.40;;
39032;SDS011;24794;51.982;5.878;2022-10-28T05:17:54;8.07;;;3.40;;
39032;SDS011;24794;51.982;5.878;2022-10-28T05:18:55;13.25;;;3.50;;
39032;SDS011;24794;51.982;5.878;2022-10-28T05:19:56;12.23;;;3.33;;
39032;SDS011;24794;51.982;5.878;2022-10-28T05:20:56;7.18;;;3.20;;
39032;SDS011;24794;51.982;5.878;2022-10-28T05:21:57;10.63;;;3.67;;
39032;SDS011;24794;51.982;5.878;2022-10-28T05:22:57;13.57;;;3.75;;
39032;SDS011;24794;51.982;5.878;2022-10-28T05:23:58;11.85;;;3.33;;
39032;SDS011;24794;51.982;5.878;2022-10-28T05:24:58;8.70;;;3.33;;
39032;SDS011;24794;51.982;5.878;2022-10-28T05:25:59;12.65;;;3.45;;
39032;SDS011;24794;51.982;5.878;2022-10-28T05:27:00;16.27;;;3.75;;
39032;SDS011;24794;51.982;5.878;2022-10-28T05:28:00;12.70;;;3.40;;
39032;SDS011;24794;51.982;5.878;2022-10-28T05:29:01;8.32;;;3.38;;
39032;SDS011;24794;51.982;5.878;2022-10-28T05:30:02;10.50;;;3.58;;
39032;SDS011;24794;51.982;5.878;2022-10-28T05:31:03;14.07;;;4.00;;
39032;SDS011;24794;51.982;5.878;2022-10-28T05:32:03;14.15;;;3.88;;
39032;SDS011;24794;51.982;5.878;2022-10-28T05:33:04;9.20;;;3.28;;
39032;SDS011;24794;51.982;5.878;2022-10-28T05:34:04;12.07;;;3.58;;
39032;SDS011;24794;51.982;5.878;2022-10-28T05:35:05;7.93;;;3.40;;
39032;SDS011;24794;51.982;5.878;2022-10-28T05:36:06;8.48;;;3.60;;
39032;SDS011;24794;51.982;5.878;2022-10-28T05:37:07;10.38;;;3.83;;
39032;SDS011;24794;51.982;5.878;2022-10-28T05:38:07;8.25;;;3.30;;
39032;SDS011;24794;51.982;5.878;2022-10-28T05:39:08;12.30;;;3.78;;
39032;SDS011;24794;51.982;5.878;2022-10-28T05:40:09;9.93;;;3.88;;
39032;SDS011;24794;51.982;5.878;2022-10-28T05:41:10;11.82;;;3.75;;
39032;SDS011;24794;51.982;5.878;2022-10-28T05:42:11;6.75;;;3.42;;
39032;SDS011;24794;51.982;5.878;2022-10-28T05:43:11;9.18;;;3.50;;
39032;SDS011;24794;51.982;5.878;2022-10-28T05:44:12;11.68;;;3.78;;
39032;SDS011;24794;51.982;5.878;2022-10-28T05:45:13;9.40;;;3.65;;
39032;SDS011;24794;51.982;5.878;2022-10-28T05:46:14;10.77;;;3.40;;
39032;SDS011;24794;51.982;5.878;2022-10-28T05:47:14;11.15;;;3.88;;
39032;SDS011;24794;51.982;5.878;2022-10-28T05:48:15;9.27;;;3.80;;
39032;SDS011;24794;51.982;5.878;2022-10-28T05:49:15;8.23;;;3.35;;
39032;SDS011;24794;51.982;5.878;2022-10-28T05:50:19;7.43;;;3.33;;
39032;SDS011;24794;51.982;5.878;2022-10-28T05:51:20;8.35;;;3.70;;
39032;SDS011;24794;51.982;5.878;2022-10-28T05:52:21;13.68;;;3.88;;
39032;SDS011;24794;51.982;5.878;2022-10-28T05:53:21;7.15;;;3.15;;
39032;SDS011;24794;51.982;5.878;2022-10-28T05:54:22;8.40;;;3.33;;
39032;SDS011;24794;51.982;5.878;2022-10-28T05:55:23;7.25;;;3.40;;
39032;SDS011;24794;51.982;5.878;2022-10-28T05:56:27;8.40;;;3.50;;
39032;SDS011;24794;51.982;5.878;2022-10-28T05:57:27;6.85;;;3.58;;
39032;SDS011;24794;51.982;5.878;2022-10-28T05:58:28;11.52;;;3.42;;
39032;SDS011;24794;51.982;5.878;2022-10-28T05:59:28;14.38;;;3.25;;
39032;SDS011;24794;51.982;5.878;2022-10-28T06:00:29;8.18;;;3.42;;
39032;SDS011;24794;51.982;5.878;2022-10-28T06:01:29;9.68;;;4.45;;
39032;SDS011;24794;51.982;5.878;2022-10-28T06:02:30;9.07;;;3.60;;
39032;SDS011;24794;51.982;5.878;2022-10-28T06:03:31;11.63;;;3.40;;
39032;SDS011;24794;51.982;5.878;2022-10-28T06:04:31;14.93;;;3.53;;
39032;SDS011;24794;51.982;5.878;2022-10-28T06:05:32;13.75;;;4.03;;
39032;SDS011;24794;51.982;5.878;2022-10-28T06:06:32;11.38;;;3.72;;
39032;SDS011;24794;51.982;5.878;2022-10-28T06:07:33;11.55;;;3.60;;
39032;SDS011;24794;51.982;5.878;2022-10-28T06:08:34;7.90;;;3.25;;
39032;SDS011;24794;51.982;5.878;2022-10-28T06:09:35;13.05;;;3.58;;
39032;SDS011;24794;51.982;5.878;2022-10-28T06:10:36;5.35;;;3.10;;
39032;SDS011;24794;51.982;5.878;2022-10-28T06:11:36;9.70;;;3.60;;
39032;SDS011;24794;51.982;5.878;2022-10-28T06:12:37;8.65;;;3.15;;
39032;SDS011;24794;51.982;5.878;2022-10-28T06:13:37;8.38;;;4.20;;
39032;SDS011;24794;51.982;5.878;2022-10-28T06:14:38;13.88;;;3.50;;
39032;SDS011;24794;51.982;5.878;2022-10-28T06:15:39;12.40;;;3.08;;
39032;SDS011;24794;51.982;5.878;2022-10-28T06:16:39;12.30;;;3.75;;
39032;SDS011;24794;51.982;5.878;2022-10-28T06:17:40;8.27;;;3.50;;
39032;SDS011;24794;51.982;5.878;2022-10-28T06:18:40;10.40;;;3.20;;
39032;SDS011;24794;51.982;5.878;2022-10-28T06:19:41;9.02;;;3.80;;
39032;SDS011;24794;51.982;5.878;2022-10-28T06:20:42;12.00;;;3.83;;
39032;SDS011;24794;51.982;5.878;2022-10-28T06:21:42;8.55;;;3.80;;
39032;SDS011;24794;51.982;5.878;2022-10-28T06:22:47;12.70;;;4.53;;
39032;SDS011;24794;51.982;5.878;2022-10-28T06:23:48;18.20;;;4.47;;
39032;SDS011;24794;51.982;5.878;2022-10-28T06:24:49;14.25;;;4.40;;
39032;SDS011;24794;51.982;5.878;2022-10-28T06:25:49;9.35;;;4.53;;
39032;SDS011;24794;51.982;5.878;2022-10-28T06:26:50;11.32;;;4.07;;
39032;SDS011;24794;51.982;5.878;2022-10-28T06:27:51;13.38;;;4.25;;
39032;SDS011;24794;51.982;5.878;2022-10-28T06:28:56;10.77;;;4.20;;
39032;SDS011;24794;51.982;5.878;2022-10-28T06:29:57;8.57;;;3.67;;
39032;SDS011;24794;51.982;5.878;2022-10-28T06:31:04;11.27;;;3.78;;
39032;SDS011;24794;51.982;5.878;2022-10-28T06:32:09;13.23;;;4.28;;
39032;SDS011;24794;51.982;5.878;2022-10-28T06:33:10;8.30;;;3.33;;
39032;SDS011;24794;51.982;5.878;2022-10-28T06:34:11;7.90;;;3.50;;
39032;SDS011;24794;51.982;5.878;2022-10-28T06:35:12;9.85;;;3.65;;
39032;SDS011;24794;51.982;5.878;2022-10-28T06:36:12;6.00;;;3.05;;
39032;SDS011;24794;51.982;5.878;2022-10-28T06:37:13;8.63;;;4.07;;
39032;SDS011;24794;51.982;5.878;2022-10-28T06:38:13;9.00;;;3.80;;
39032;SDS011;24794;51.982;5.878;2022-10-28T06:39:14;13.20;;;3.47;;
39032;SDS011;24794;51.982;5.878;2022-10-28T06:40:14;10.80;;;3.42;;
39032;SDS011;24794;51.982;5.878;2022-10-28T06:41:15;7.15;;;3.33;;
39032;SDS011;24794;51.982;5.878;2022-10-28T06:42:16;9.65;;;3.53;;
39032;SDS011;24794;51.982;5.878;2022-10-28T06:43:16;9.10;;;3.40;;
39032;SDS011;24794;51.982;5.878;2022-10-28T06:44:17;7.22;;;3.63;;
39032;SDS011;24794;51.982;5.878;2022-10-28T06:45:17;7.55;;;3.60;;
39032;SDS011;24794;51.982;5.878;2022-10-28T06:46:18;8.02;;;3.75;;
39032;SDS011;24794;51.982;5.878;2022-10-28T06:47:19;9.43;;;3.30;;
39032;SDS011;24794;51.982;5.878;2022-10-28T06:48:20;11.45;;;3.55;;
39032;SDS011;24794;51.982;5.878;2022-10-28T06:49:21;8.45;;;3.38;;
39032;SDS011;24794;51.982;5.878;2022-10-28T06:50:22;9.90;;;4.00;;
39032;SDS011;24794;51.982;5.878;2022-10-28T06:51:22;7.07;;;3.42;;
39032;SDS011;24794;51.982;5.878;2022-10-28T06:52:23;8.50;;;3.45;;
39032;SDS011;24794;51.982;5.878;2022-10-28T06:53:24;8.25;;;3.20;;